x

Cape San Martin - 55nm West Nw Of Morro Bay, Ca (46028) Wave Buoy

1:50am - Wed 24th May 2017 All times are PDT. -7 hours from GMT.

  • Sig Wave height 4.3ft
  • Swell Direction
  • Peak Period 14s
  • Average Period 10s
  • Wind
    7mph, 11mph gusts
  • Sea Temp 57°f
  • Air Temp 55°f
  • Sea Pressure 1013.3mb
  • Cape San Martin - 55nm West Nw Of Morro Bay, Ca
  • Cape San Martin - 55nm West Nw Of Morro Bay, Ca

More Historic Weather Station data

Upgrade to MSW Pro to gain access to the past 30 days of data for over 8000 Wavebouys and Weather Stations around the globe.

Join Pro

Comparision Forecast

View Surf forecast
   
Wed 05/24 1:50am 4.5ft 14s 10s 7 11 mph 1013.3mb 57f 55f
12:50am 4ft 15s 10s 7 11 mph 1013.6mb 58f 55f
Tue 05/23 11:50pm 4.5ft 15s 10s 7 9 mph 1013.8mb 58f 55f
10:50pm 4.5ft 15s 10s 7 9 mph 1014.2mb 58f 55f
9:50pm 5.5ft 15s 11s 7 13 mph 1013.8mb 58f 55f
8:50pm 4.5ft 15s 10s 9 13 mph 1013.8mb 58f 55f
7:50pm 4.5ft 15s 10s 11 13 mph 1013.6mb 58f 56f
6:50pm 4.5ft 15s 10s 11 13 mph 1014mb 57f 56f
5:50pm 4ft 15s 9s 9 11 mph 1014.6mb 56f 56f
4:50pm 4.5ft 15s  -  4 7 mph 1015.1mb 57f 57f
3:50pm 5ft 15s 9s 4 7 mph 1015.9mb 57f 57f
2:50pm 4.5ft 16s 8s 4 7 mph 1016.4mb 56f 57f
1:50pm 4.5ft 14s 9s 4 7 mph 1016.7mb 58f 57f
12:50pm 4ft 15s 9s 7 7 mph 1016.7mb 56f 57f
11:50am 4.5ft 15s 9s 9 9 mph 1016.2mb 57f 56f
10:50am 4ft 15s 9s 9 11 mph 1015.6mb 56f 55f
9:50am 4.5ft 15s 9s 7 9 mph 1015.1mb 57f 55f
8:50am 4ft 15s 9s 9 11 mph 1014.8mb 57f 55f
7:50am 4.5ft 15s 9s 7 11 mph 1015.2mb 57f 55f
6:50am 4.5ft 15s 9s 4 7 mph 1014.9mb 57f 54f
5:50am 4.5ft 16s 8s 7 9 mph 1014.6mb 57f 55f
4:50am 4.5ft 16s 8s 7 9 mph 1014.4mb 56f 54f
3:50am 4.5ft 16s 8s 7 11 mph 1014.3mb 55f 54f
2:50am 4ft 15s 8s 7 9 mph 1014.8mb 54f 54f
1:50am 4.5ft 16s 8s 7 7 mph 1015.4mb 54f 55f
12:50am 4ft 16s 7s 4 7 mph 1015.8mb 54f 55f
Mon 05/22 11:50pm 4ft 15s 7s 7 7 mph 1015.7mb 54f 55f
10:50pm 4ft 16s 7s 9 11 mph 1015.6mb 54f 55f
9:50pm 3.5ft 16s 7s 7 7 mph 1015.6mb 54f 55f
8:50pm 4ft 16s 8s 9 11 mph 1015.1mb 55f 55f
7:50pm 3.5ft 16s 7s 11 13 mph 1014.8mb 54f 56f
6:50pm 4.5ft 16s 8s 11 13 mph 1014.6mb 54f 56f
5:50pm 4.5ft 8s 7s 9 9 mph 1015mb 54f 56f
4:50pm 4.5ft 16s 7s 7 9 mph 1015.5mb 54f 56f
3:50pm 4.5ft 16s 7s 7 9 mph 1015.9mb 54f 56f
2:50pm 4.5ft 16s 7s 7 9 mph 1016.1mb 55f 56f
1:50pm 4.5ft 16s 7s 4 7 mph 1015.9mb 55f 55f
12:50pm 5ft 16s 7s 9 9 mph 1016.1mb 55f 54f
11:50am 5ft 16s 7s 7 11 mph 1016.2mb 55f 55f
10:50am 5ft 16s 7s 9 13 mph 1016.1mb 54f 54f
9:50am 5ft 8s 7s 11 16 mph 1015.7mb 54f 53f
8:50am 5ft 14s 7s 11 16 mph 1015.6mb 54f 53f
7:50am 5ft 8s 7s 13 18 mph 1015.3mb 54f 53f
6:50am 5ft 9s 7s 11 13 mph 1015.1mb 54f 53f
5:50am 6ft 9s 7s 11 13 mph 1014.6mb 54f 53f
4:50am 5.5ft 9s 7s 13 16 mph 1014.4mb 54f 53f
3:50am 5.5ft 9s 6s 11 16 mph 1014.6mb 54f 53f
2:50am 6ft 9s 7s 13 18 mph 1014.9mb 54f 53f
1:50am 6ft 8s 7s 13 18 mph 1015.1mb 54f 53f
12:50am 5ft 9s 6s 13 18 mph 1015.3mb 54f 53f
Sun 05/21 11:50pm 6ft 9s 7s 13 18 mph 1015.6mb 54f 53f
10:50pm 6ft 9s 7s 16 18 mph 1015.4mb 54f 53f
9:50pm 6ft 9s 6s 16 18 mph 1015.1mb 54f 53f
8:50pm 6ft 10s 7s 16 18 mph 1014.7mb 54f 54f
7:50pm 7ft 9s 7s 16 20 mph 1014.4mb 54f 55f
6:50pm 6.5ft 9s 7s 18 22 mph 1014.2mb 55f 55f
5:50pm 6ft 9s 7s 18 20 mph 1014.2mb 55f 55f
4:50pm 6.5ft 10s 7s 18 22 mph 1014.3mb 55f 55f
3:50pm 6ft 10s 7s 18 22 mph 1014.5mb 55f 55f
2:50pm 6ft 9s 6s 16 20 mph 1014.6mb 55f 55f
1:50pm 5.5ft 10s 7s 18 20 mph 1014.6mb 55f 54f
12:50pm 5ft 10s 6s 18 20 mph 1014.6mb 55f 54f
11:50am 4.5ft 9s 7s 16 18 mph 1014.7mb 55f 54f
10:50am 4.5ft 9s 7s 11 16 mph 1014.4mb 55f 55f
9:50am 4.5ft 12s 7s 7 7 mph 1014mb 54f 52f
8:50am 4.5ft 8s 7s 7 9 mph 1013.9mb 54f 51f
7:50am 5ft 8s 7s 9 11 mph 1013.2mb 54f 51f
6:50am 5ft 9s  -  11 13 mph 1013mb 54f 52f
5:50am 5ft 9s 7s 11 13 mph 1012.6mb 54f 52f
4:50am 5.5ft 9s 8s 9 11 mph 1012.7mb 55f 52f
3:50am 5ft 9s 7s 4 7 mph 1012.8mb 55f 51f
2:50am 5ft 10s 7s 4 4 mph 1012.9mb 55f 52f
1:50am 5ft 9s 7s 7 9 mph 1013mb 55f 54f
12:50am 5ft 9s 6s 11 13 mph 1013.3mb 55f 53f
Sat 05/20 11:50pm 5ft 8s 6s 13 18 mph 1013.1mb 55f 53f
10:50pm 5ft 9s 6s 16 20 mph 1013.1mb 55f 54f
9:50pm 5ft 9s 6s 18 20 mph 1012.8mb 55f 54f
8:50pm 5ft 9s 6s 16 20 mph 1012.6mb 55f 54f
7:50pm 5ft 9s 6s 18 20 mph 1012.4mb 55f 54f
6:50pm 5.5ft 9s 7s 18 22 mph 1012.5mb 55f 54f
5:50pm 5.5ft 9s 6s 18 20 mph 1012.6mb 56f 54f
4:50pm 5.5ft 9s 6s 18 20 mph 1013mb 56f 54f
3:50pm 5.5ft 8s 7s 18 20 mph 1013.5mb 56f 54f
2:50pm 5.5ft 9s 7s 18 22 mph 1014mb 56f 54f
1:50pm 5.5ft 9s 7s 18 20 mph 1014.3mb 56f 54f
12:50pm 5ft 8s 6s 13 18 mph 1014.8mb 56f 53f
11:50am 5ft 8s 6s 13 16 mph 1014.8mb 55f 53f
10:50am 5ft 9s 6s 13 16 mph 1014.8mb 55f 53f
9:50am 4.5ft 8s 6s 13 18 mph 1014.8mb 54f 53f